Time;durP1;ratioP1;P1;durP2;ratioP2;P2;SDS_P1;SDS_P2;PMS_P1;PMS_P2;Temp;Humidity;BMP_temperature;BMP_pressure;BME280_temperature;BME280_humidity;BME280_pressure;Samples;Min_cycle;Max_cycle;Signal;HPM_P1;HPM_P2
2023/02/07 00:02:10;;;;;;;1.00;1.00;;;-1.70;92.90;;;;;;5033200;28;20627;-68
2023/02/07 00:04:35;;;;;;;0.50;0.50;;;-1.60;92.80;;;;;;5032589;28;20242;-67
2023/02/07 00:07:01;;;;;;;0.40;0.40;;;-1.70;92.40;;;;;;5033034;28;20250;-68
2023/02/07 00:09:27;;;;;;;0.30;0.30;;;-1.60;92.50;;;;;;5033534;28;20249;-68
2023/02/07 00:11:52;;;;;;;0.30;0.30;;;-1.90;92.40;;;;;;5036191;28;20193;-67
2023/02/07 00:14:18;;;;;;;0.40;0.40;;;-1.80;92.60;;;;;;5036376;28;20189;-67
2023/02/07 00:16:43;;;;;;;2.63;1.13;;;-2.10;93.10;;;;;;5034794;28;20171;-68
2023/02/07 00:19:09;;;;;;;0.40;0.40;;;-2.10;93.00;;;;;;5036561;28;20175;-68
2023/02/07 00:21:35;;;;;;;0.40;0.40;;;-2.10;92.70;;;;;;5036043;28;20260;-67
2023/02/07 00:24:01;;;;;;;0.63;0.63;;;-2.00;92.80;;;;;;5036224;28;20448;-67
2023/02/07 00:26:27;;;;;;;0.80;0.80;;;-2.10;92.60;;;;;;5034768;28;20225;-68
2023/02/07 00:28:53;;;;;;;0.40;0.40;;;-2.10;92.70;;;;;;5036052;28;20174;-68
2023/02/07 00:31:28;;;;;;;0.40;0.40;;;-2.00;92.40;;;;;;5036009;28;20215;-67
2023/02/07 00:33:57;;;;;;;0.30;0.30;;;-2.10;91.90;;;;;;5036127;28;20182;-67
2023/02/07 00:36:24;;;;;;;0.75;0.75;;;-2.30;91.80;;;;;;5035764;28;20175;-67
2023/02/07 00:38:50;;;;;;;0.30;0.30;;;-2.20;92.20;;;;;;5035948;28;20224;-67
2023/02/07 00:41:17;;;;;;;0.40;0.40;;;-2.20;91.90;;;;;;5035586;28;20760;-67
2023/02/07 00:43:44;;;;;;;0.40;0.40;;;-2.40;91.70;;;;;;5035824;28;20524;-68
2023/02/07 00:46:10;;;;;;;0.30;0.30;;;-2.50;91.60;;;;;;5035520;28;20577;-67
2023/02/07 00:48:38;;;;;;;0.47;0.47;;;-2.50;91.80;;;;;;5035597;28;20253;-67
2023/02/07 00:51:04;;;;;;;0.70;0.70;;;-2.60;91.40;;;;;;5035641;28;20195;-68
2023/02/07 00:53:30;;;;;;;0.40;0.40;;;-2.60;92.00;;;;;;5035937;28;20185;-67
2023/02/07 00:55:56;;;;;;;0.40;0.40;;;-2.60;92.60;;;;;;5035323;28;20699;-68
2023/02/07 00:58:22;;;;;;;0.50;0.50;;;-2.50;92.30;;;;;;5035824;28;20167;-67
2023/02/07 01:00:48;;;;;;;0.30;0.30;;;-2.30;92.30;;;;;;5035481;28;20191;-68
2023/02/07 01:03:14;;;;;;;0.60;0.60;;;-2.40;91.60;;;;;;5035458;28;20173;-67
2023/02/07 01:05:40;;;;;;;0.30;0.30;;;-2.50;91.60;;;;;;5035193;28;20199;-67
2023/02/07 01:08:06;;;;;;;18.08;2.15;;;-2.60;91.70;;;;;;5035407;28;20273;-67
2023/02/07 01:10:32;;;;;;;2.60;2.40;;;-2.80;91.80;;;;;;5035247;28;20652;-68
2023/02/07 01:12:58;;;;;;;0.50;0.50;;;-2.70;91.90;;;;;;5035180;28;20567;-68
2023/02/07 01:15:23;;;;;;;0.82;0.82;;;-2.70;91.60;;;;;;5034997;28;20261;-67
2023/02/07 01:17:49;;;;;;;0.50;0.50;;;-2.80;91.60;;;;;;5035164;28;20171;-68
2023/02/07 01:20:16;;;;;;;1.13;1.13;;;-2.70;91.50;;;;;;5035026;28;20296;-67
2023/02/07 01:22:42;;;;;;;0.60;0.60;;;-2.80;91.60;;;;;;5033701;28;20178;-67
2023/02/07 01:25:08;;;;;;;0.50;0.50;;;-2.80;91.70;;;;;;5033492;28;20207;-68
2023/02/07 01:27:35;;;;;;;0.40;0.40;;;-2.80;91.80;;;;;;5035092;28;20170;-68
2023/02/07 01:30:01;;;;;;;0.50;0.50;;;-2.70;91.90;;;;;;5034751;28;20564;-67
2023/02/07 01:32:27;;;;;;;0.30;0.30;;;-2.60;91.90;;;;;;5033584;28;20197;-67
2023/02/07 01:34:53;;;;;;;0.40;0.40;;;-2.50;91.50;;;;;;5034636;28;20640;-67
2023/02/07 01:37:19;;;;;;;0.40;0.40;;;-2.40;91.50;;;;;;5034868;28;20429;-67
2023/02/07 01:39:46;;;;;;;0.40;0.40;;;-2.40;91.60;;;;;;5034761;28;20175;-67
2023/02/07 01:42:16;;;;;;;2.47;0.90;;;-2.40;91.60;;;;;;5034593;28;20755;-68
2023/02/07 01:44:41;;;;;;;0.60;0.60;;;-2.40;91.70;;;;;;5034360;28;20538;-67
2023/02/07 01:47:28;;;;;;;2.80;2.70;;;-2.50;91.70;;;;;;5034715;28;20233;-68
2023/02/07 01:49:55;;;;;;;0.50;0.50;;;-2.50;91.80;;;;;;5034560;28;20199;-67
2023/02/07 01:52:35;;;;;;;2.15;2.05;;;-2.60;92.10;;;;;;5035031;28;20171;-68
2023/02/07 01:55:05;;;;;;;0.82;0.82;;;-2.60;92.20;;;;;;5034403;28;20179;-68
2023/02/07 01:57:31;;;;;;;0.45;0.45;;;-2.50;92.30;;;;;;5034628;28;20222;-67
2023/02/07 01:59:58;;;;;;;0.43;0.43;;;-2.60;92.10;;;;;;5034263;28;20277;-68
2023/02/07 02:02:27;;;;;;;0.93;0.93;;;-2.50;92.10;;;;;;5034233;28;20174;-67
2023/02/07 02:04:53;;;;;;;1.42;1.33;;;-2.50;92.40;;;;;;5034047;28;20671;-68
2023/02/07 02:07:20;;;;;;;0.60;0.60;;;-2.50;92.20;;;;;;5034147;28;20175;-67
2023/02/07 02:09:46;;;;;;;1.58;1.48;;;-2.50;92.30;;;;;;5033993;28;20187;-67
2023/02/07 02:13:25;;;;;;;1.07;1.07;;;-2.60;92.50;;;;;;5033882;28;20668;-68
2023/02/07 02:15:53;;;;;;;1.30;1.27;;;-2.70;92.90;;;;;;4934532;29;20214;-68
2023/02/07 02:18:19;;;;;;;0.50;0.50;;;-2.80;93.20;;;;;;4997381;28;20211;-67
2023/02/07 02:21:21;;;;;;;0.40;0.40;;;-2.90;93.40;;;;;;5027545;28;20238;-67
2023/02/07 02:23:50;;;;;;;0.88;0.88;;;-2.90;93.70;;;;;;5033831;28;20190;-67
2023/02/07 02:26:47;;;;;;;0.85;0.85;;;-2.90;93.70;;;;;;5033578;28;20179;-67
2023/02/07 02:29:24;;;;;;;0.75;0.75;;;-2.90;93.70;;;;;;5034144;28;20524;-67
2023/02/07 02:32:17;;;;;;;0.63;0.63;;;-3.10;93.80;;;;;;5033386;28;20182;-67
2023/02/07 02:34:49;;;;;;;0.50;0.50;;;-3.00;93.90;;;;;;5033932;28;20170;-67
2023/02/07 02:37:27;;;;;;;0.70;0.70;;;-2.90;93.70;;;;;;5033882;28;20175;-67
2023/02/07 02:39:57;;;;;;;0.30;0.30;;;-2.90;93.60;;;;;;5033837;28;20286;-67
2023/02/07 02:42:30;;;;;;;0.40;0.40;;;-2.90;93.10;;;;;;5033596;28;20198;-67
2023/02/07 02:45:12;;;;;;;1.27;1.27;;;-2.90;93.00;;;;;;5033348;28;20206;-67
2023/02/07 02:47:41;;;;;;;0.43;0.43;;;-3.00;92.90;;;;;;5033805;28;20191;-68
2023/02/07 02:50:20;;;;;;;0.50;0.50;;;-2.90;92.90;;;;;;5033540;28;20199;-67
2023/02/07 02:52:45;;;;;;;0.95;0.95;;;-2.90;92.90;;;;;;5033530;28;20182;-67
2023/02/07 02:55:12;;;;;;;0.40;0.40;;;-2.80;92.70;;;;;;5033355;28;20663;-67
2023/02/07 02:57:57;;;;;;;0.50;0.50;;;-2.80;92.30;;;;;;5033544;28;20264;-68
2023/02/07 03:00:47;;;;;;;0.60;0.60;;;-2.80;92.00;;;;;;5033612;28;20587;-67
2023/02/07 03:03:39;;;;;;;0.50;0.50;;;-2.70;92.00;;;;;;5033614;28;20694;-67
2023/02/07 03:06:23;;;;;;;0.40;0.40;;;-2.90;92.00;;;;;;5033444;28;20181;-67
2023/02/07 03:09:24;;;;;;;0.70;0.70;;;-2.90;92.10;;;;;;5033694;28;20524;-68
2023/02/07 03:12:03;;;;;;;0.50;0.50;;;-2.80;92.20;;;;;;5033503;28;20198;-67
2023/02/07 03:14:59;;;;;;;0.50;0.50;;;-2.80;91.90;;;;;;5033151;28;20171;-68
2023/02/07 03:17:30;;;;;;;0.40;0.40;;;-2.70;91.70;;;;;;5033585;28;20229;-68
2023/02/07 03:20:18;;;;;;;0.60;0.60;;;-2.70;91.60;;;;;;5033386;28;20699;-67
2023/02/07 03:22:45;;;;;;;1.20;1.20;;;-2.70;91.60;;;;;;5033325;28;20171;-67
2023/02/07 03:25:13;;;;;;;0.40;0.40;;;-2.60;91.60;;;;;;5033142;28;20190;-68
2023/02/07 03:27:40;;;;;;;0.57;0.57;;;-2.60;91.30;;;;;;5033339;28;20185;-67
2023/02/07 03:30:10;;;;;;;0.40;0.40;;;-2.60;91.20;;;;;;5033000;28;20197;-68
2023/02/07 03:32:40;;;;;;;2.78;1.15;;;-2.70;91.20;;;;;;5033075;28;20658;-68
2023/02/07 03:35:18;;;;;;;0.70;0.70;;;-2.70;91.50;;;;;;5033012;28;20171;-68
2023/02/07 03:37:51;;;;;;;0.65;0.65;;;-2.60;91.60;;;;;;5033234;28;20167;-68
2023/02/07 03:40:17;;;;;;;0.30;0.30;;;-2.60;91.30;;;;;;5033149;28;20282;-68
2023/02/07 03:43:09;;;;;;;1.35;1.25;;;-2.50;91.10;;;;;;5031737;28;20194;-68
2023/02/07 03:45:35;;;;;;;0.40;0.40;;;-2.50;91.20;;;;;;5036870;28;20214;-68
2023/02/07 03:48:00;;;;;;;0.33;0.33;;;-2.60;91.40;;;;;;5036960;28;20179;-68
2023/02/07 03:50:26;;;;;;;0.80;0.80;;;-2.70;91.50;;;;;;5036670;28;20425;-67
2023/02/07 03:52:52;;;;;;;0.40;0.40;;;-2.70;91.60;;;;;;5036675;28;20659;-68
2023/02/07 03:55:17;;;;;;;0.83;0.83;;;-2.70;91.60;;;;;;5036497;28;20269;-68
2023/02/07 03:57:43;;;;;;;0.40;0.40;;;-2.70;91.60;;;;;;5036556;28;20194;-68
2023/02/07 04:00:09;;;;;;;0.50;0.50;;;-2.70;92.10;;;;;;5035158;28;20942;-67
2023/02/07 04:02:35;;;;;;;0.75;0.75;;;-2.60;92.10;;;;;;5035244;28;20647;-67
2023/02/07 04:05:01;;;;;;;0.43;0.43;;;-2.60;91.70;;;;;;5036169;28;20210;-68
2023/02/07 04:07:26;;;;;;;0.97;0.97;;;-2.60;91.30;;;;;;5036446;28;20240;-68
2023/02/07 04:09:52;;;;;;;0.60;0.60;;;-2.80;91.20;;;;;;5036472;28;20214;-68
2023/02/07 04:12:17;;;;;;;0.40;0.40;;;-2.90;91.50;;;;;;5036523;28;20529;-68
2023/02/07 04:14:43;;;;;;;0.50;0.50;;;-3.00;91.90;;;;;;5036144;28;20178;-67
2023/02/07 04:17:09;;;;;;;3.70;3.50;;;-3.00;92.10;;;;;;5036296;28;20178;-67
2023/02/07 04:19:34;;;;;;;0.50;0.50;;;-3.10;92.20;;;;;;5036215;28;20183;-67
2023/02/07 04:22:00;;;;;;;0.50;0.50;;;-3.00;92.20;;;;;;5036144;28;20175;-68
2023/02/07 04:24:25;;;;;;;0.50;0.50;;;-2.80;92.00;;;;;;5035793;28;20195;-68
2023/02/07 04:26:51;;;;;;;1.17;1.17;;;-2.70;91.80;;;;;;5034810;28;20646;-68
2023/02/07 04:29:17;;;;;;;0.50;0.50;;;-2.70;91.70;;;;;;5036415;28;20533;-68
2023/02/07 04:31:42;;;;;;;0.40;0.40;;;-2.90;91.60;;;;;;5035933;28;20195;-68
2023/02/07 04:34:08;;;;;;;3.10;2.03;;;-3.10;91.80;;;;;;5036145;28;20182;-68
2023/02/07 04:36:35;;;;;;;0.83;0.83;;;-3.00;92.10;;;;;;5035902;28;20174;-68
2023/02/07 04:39:01;;;;;;;1.65;1.60;;;-2.90;92.10;;;;;;5035829;28;20773;-67
2023/02/07 04:41:26;;;;;;;0.40;0.40;;;-3.00;92.00;;;;;;5035736;28;20200;-68
2023/02/07 04:43:52;;;;;;;0.47;0.47;;;-3.10;92.00;;;;;;5035731;28;21003;-67
2023/02/07 04:46:18;;;;;;;0.40;0.40;;;-3.10;92.10;;;;;;5035783;28;20198;-67
2023/02/07 04:48:44;;;;;;;1.60;1.60;;;-3.00;92.10;;;;;;5035875;28;20171;-67
2023/02/07 04:51:10;;;;;;;0.70;0.70;;;-3.00;92.30;;;;;;5035789;28;20828;-67
2023/02/07 04:53:36;;;;;;;0.40;0.40;;;-3.00;92.20;;;;;;5035529;28;20173;-67
2023/02/07 04:56:01;;;;;;;0.83;0.83;;;-3.10;92.10;;;;;;5034729;28;20174;-67
2023/02/07 04:58:27;;;;;;;0.40;0.40;;;-3.20;92.20;;;;;;5035534;28;20221;-67
2023/02/07 05:00:53;;;;;;;0.40;0.40;;;-3.30;92.50;;;;;;5035362;28;20218;-67
2023/02/07 05:03:19;;;;;;;0.88;0.88;;;-3.30;92.50;;;;;;5035399;28;20163;-67
2023/02/07 05:05:45;;;;;;;1.00;1.00;;;-3.30;92.50;;;;;;5035242;28;20209;-67
2023/02/07 05:08:11;;;;;;;0.70;0.70;;;-3.50;92.50;;;;;;5034801;28;20761;-67
2023/02/07 05:10:37;;;;;;;0.50;0.50;;;-3.40;92.50;;;;;;5035065;28;20430;-68
2023/02/07 05:13:03;;;;;;;0.60;0.60;;;-3.40;92.50;;;;;;5035154;28;20194;-69
2023/02/07 05:15:29;;;;;;;0.93;0.93;;;-3.30;92.40;;;;;;5035130;28;20210;-70
2023/02/07 05:17:55;;;;;;;1.05;1.05;;;-3.40;92.60;;;;;;5035179;28;20253;-68
2023/02/07 05:20:22;;;;;;;0.60;0.60;;;-3.30;92.50;;;;;;5035219;28;20783;-67
2023/02/07 05:22:48;;;;;;;0.50;0.50;;;-3.30;92.30;;;;;;5034915;28;20175;-68
2023/02/07 05:25:14;;;;;;;0.57;0.57;;;-3.30;92.00;;;;;;5034708;28;20285;-67
2023/02/07 05:27:39;;;;;;;0.50;0.50;;;-3.30;92.00;;;;;;5034960;28;20739;-67
2023/02/07 05:30:06;;;;;;;0.50;0.50;;;-3.20;92.10;;;;;;5034705;28;20198;-67
2023/02/07 05:35:17;;;;;;;0.85;0.85;;;-3.10;91.90;;;;;;5034755;28;20185;-67
2023/02/07 05:37:43;;;;;;;0.50;0.50;;;-3.20;92.00;;;;;;5034798;28;20631;-67
2023/02/07 05:40:11;;;;;;;0.70;0.70;;;-3.10;91.70;;;;;;5034916;28;20195;-67
2023/02/07 05:42:38;;;;;;;0.50;0.50;;;-3.00;91.80;;;;;;5034965;28;20171;-67
2023/02/07 05:45:05;;;;;;;1.90;1.80;;;-2.80;91.70;;;;;;5034594;28;20195;-69
2023/02/07 05:47:31;;;;;;;1.45;1.35;;;-2.70;91.40;;;;;;5034695;28;20182;-69
2023/02/07 05:49:56;;;;;;;2.73;2.63;;;-2.60;91.20;;;;;;5034694;28;20191;-70
2023/02/07 05:52:22;;;;;;;0.40;0.40;;;-2.70;91.00;;;;;;5034623;28;20228;-67
2023/02/07 05:54:48;;;;;;;1.90;1.23;;;-2.60;90.90;;;;;;5034185;28;20225;-69
2023/02/07 05:57:13;;;;;;;0.77;0.77;;;-2.70;90.70;;;;;;5034865;28;20616;-68
2023/02/07 05:59:39;;;;;;;1.47;1.47;;;-2.70;90.70;;;;;;5034770;28;20256;-68
2023/02/07 06:02:04;;;;;;;1.30;1.30;;;-2.70;90.60;;;;;;5034936;28;20185;-67
2023/02/07 06:04:30;;;;;;;0.40;0.40;;;-2.70;90.70;;;;;;5034644;28;20190;-68
2023/02/07 06:06:56;;;;;;;1.73;1.73;;;-2.80;91.00;;;;;;5033547;28;20170;-68
2023/02/07 06:09:21;;;;;;;0.40;0.40;;;-2.70;91.00;;;;;;5034349;28;20218;-67
2023/02/07 06:11:47;;;;;;;0.50;0.50;;;-2.80;90.90;;;;;;5033883;28;20257;-68
2023/02/07 06:14:12;;;;;;;0.97;0.97;;;-2.90;91.20;;;;;;5034205;28;20179;-68
2023/02/07 06:16:38;;;;;;;0.50;0.50;;;-2.90;91.30;;;;;;5034449;28;20212;-67
2023/02/07 06:19:04;;;;;;;0.40;0.40;;;-2.90;91.30;;;;;;5032888;28;20273;-68
2023/02/07 06:21:29;;;;;;;0.40;0.40;;;-2.90;91.20;;;;;;5032785;28;20300;-68
2023/02/07 06:23:55;;;;;;;0.40;0.40;;;-2.90;91.40;;;;;;5033970;28;20199;-67
2023/02/07 06:26:21;;;;;;;1.47;1.47;;;-2.80;91.30;;;;;;5033552;28;20210;-69
2023/02/07 06:28:46;;;;;;;0.50;0.50;;;-2.80;91.20;;;;;;5034472;28;20166;-67
2023/02/07 06:31:12;;;;;;;0.80;0.80;;;-2.70;91.00;;;;;;5033770;28;20241;-67
2023/02/07 06:33:37;;;;;;;0.63;0.63;;;-2.70;90.80;;;;;;5034467;28;20167;-68
2023/02/07 06:36:03;;;;;;;2.13;0.93;;;-2.70;90.90;;;;;;5033563;28;20177;-67
2023/02/07 06:38:29;;;;;;;0.50;0.50;;;-2.70;90.90;;;;;;5033947;28;20171;-67
2023/02/07 06:40:54;;;;;;;1.07;1.03;;;-2.60;90.90;;;;;;5033989;28;20194;-67
2023/02/07 06:43:20;;;;;;;1.13;1.13;;;-2.60;91.00;;;;;;5034142;28;20510;-67
2023/02/07 06:45:46;;;;;;;0.40;0.40;;;-2.60;90.90;;;;;;5033497;28;20277;-68
2023/02/07 06:48:11;;;;;;;0.77;0.77;;;-2.60;90.80;;;;;;5033959;28;20197;-67
2023/02/07 06:50:37;;;;;;;0.40;0.40;;;-2.60;90.60;;;;;;5033908;28;20194;-67
2023/02/07 06:53:03;;;;;;;0.50;0.50;;;-2.60;90.60;;;;;;5033918;28;20175;-67
2023/02/07 06:55:30;;;;;;;0.40;0.40;;;-2.60;90.50;;;;;;5033327;28;20228;-67
2023/02/07 06:57:56;;;;;;;0.40;0.40;;;-2.50;90.70;;;;;;5033848;28;20171;-68
2023/02/07 07:00:22;;;;;;;0.47;0.47;;;-2.60;90.80;;;;;;5033620;28;20320;-67
2023/02/07 07:02:48;;;;;;;0.70;0.70;;;-2.60;90.70;;;;;;5034058;28;20874;-67
2023/02/07 07:05:14;;;;;;;0.60;0.60;;;-2.50;90.80;;;;;;5033577;28;20205;-67
2023/02/07 07:07:39;;;;;;;1.17;1.17;;;-2.50;90.70;;;;;;5033604;28;20174;-67
2023/02/07 07:10:06;;;;;;;0.40;0.40;;;-2.50;90.80;;;;;;5033890;28;20297;-67
2023/02/07 07:12:32;;;;;;;1.15;1.10;;;-2.40;90.90;;;;;;5033727;28;20186;-67
2023/02/07 07:14:57;;;;;;;0.95;0.95;;;-2.40;91.00;;;;;;5033147;28;20178;-67
2023/02/07 07:17:23;;;;;;;0.40;0.40;;;-2.40;91.20;;;;;;5033985;28;20250;-68
2023/02/07 07:19:49;;;;;;;0.40;0.40;;;-2.30;91.30;;;;;;5036225;28;20191;-67
2023/02/07 07:22:14;;;;;;;0.40;0.40;;;-2.40;90.90;;;;;;5037600;28;20170;-67
2023/02/07 07:24:40;;;;;;;0.40;0.40;;;-2.40;91.00;;;;;;5037272;28;20225;-68
2023/02/07 07:27:05;;;;;;;0.40;0.40;;;-2.50;91.20;;;;;;5037598;28;20515;-68
2023/02/07 07:29:31;;;;;;;0.57;0.57;;;-2.40;91.20;;;;;;5037235;28;20171;-67
2023/02/07 07:31:57;;;;;;;0.40;0.40;;;-2.40;90.80;;;;;;5037490;28;20534;-67
2023/02/07 07:34:22;;;;;;;0.37;0.37;;;-2.60;91.00;;;;;;5037034;28;20178;-67
2023/02/07 07:36:48;;;;;;;4.47;1.10;;;-2.60;91.20;;;;;;5035981;28;20198;-67
2023/02/07 07:39:15;;;;;;;0.40;0.40;;;-2.60;91.50;;;;;;5037273;28;20580;-67
2023/02/07 07:41:41;;;;;;;0.40;0.40;;;-2.50;91.60;;;;;;5037578;28;20436;-68
2023/02/07 07:44:07;;;;;;;0.38;0.38;;;-2.50;91.60;;;;;;5037278;28;20198;-68
2023/02/07 07:46:33;;;;;;;0.30;0.30;;;-2.60;91.60;;;;;;5036915;28;20536;-68
2023/02/07 07:48:59;;;;;;;0.30;0.30;;;-2.50;91.70;;;;;;5036908;28;20491;-67
2023/02/07 07:51:24;;;;;;;0.30;0.30;;;-2.50;91.60;;;;;;5036937;28;20332;-67
2023/02/07 07:53:50;;;;;;;5.03;3.87;;;-2.40;91.50;;;;;;5036920;28;20174;-67
2023/02/07 07:56:16;;;;;;;0.97;0.97;;;-2.20;91.60;;;;;;5036691;28;20163;-67
2023/02/07 07:58:41;;;;;;;0.90;0.90;;;-1.90;92.10;;;;;;5036594;28;20532;-67
2023/02/07 08:01:07;;;;;;;0.60;0.60;;;-0.50;93.20;;;;;;5036285;28;20193;-68
2023/02/07 08:03:33;;;;;;;2.53;2.20;;;1.50;90.90;;;;;;5036683;28;20179;-67
2023/02/07 08:05:59;;;;;;;1.47;1.37;;;3.60;85.20;;;;;;5036427;28;20176;-68
2023/02/07 08:08:24;;;;;;;0.83;0.83;;;5.30;78.80;;;;;;5036523;28;20400;-68
2023/02/07 08:10:50;;;;;;;1.27;1.20;;;6.20;70.20;;;;;;5036376;28;20213;-68
2023/02/07 08:13:16;;;;;;;1.70;1.70;;;7.20;66.80;;;;;;5036182;28;20189;-68
2023/02/07 08:15:42;;;;;;;2.23;1.93;;;8.50;61.40;;;;;;5036064;28;20213;-68
2023/02/07 08:18:08;;;;;;;1.60;1.50;;;9.80;56.80;;;;;;5036162;28;20178;-68
2023/02/07 08:20:33;;;;;;;2.10;1.00;;;10.70;51.50;;;;;;5036075;28;20433;-68
2023/02/07 08:22:59;;;;;;;2.00;1.03;;;11.20;48.70;;;;;;5036218;28;20409;-68
2023/02/07 08:25:25;;;;;;;1.37;1.27;;;11.30;44.80;;;;;;5035915;28;20202;-69
2023/02/07 08:27:51;;;;;;;2.07;1.70;;;11.80;44.80;;;;;;5036260;28;20406;-67
2023/02/07 08:30:17;;;;;;;1.47;1.47;;;12.70;43.20;;;;;;5035109;28;20656;-67
2023/02/07 08:32:43;;;;;;;2.30;1.30;;;13.50;42.00;;;;;;5036152;28;20416;-67
2023/02/07 08:35:09;;;;;;;3.03;1.97;;;14.50;40.90;;;;;;5035915;28;20417;-69
2023/02/07 08:37:35;;;;;;;1.40;1.27;;;15.30;38.70;;;;;;5035973;28;20422;-68
2023/02/07 08:40:03;;;;;;;3.50;2.57;;;16.10;37.50;;;;;;5035910;28;20432;-67
2023/02/07 08:42:29;;;;;;;1.50;1.40;;;16.70;35.80;;;;;;5035820;28;20428;-67
2023/02/07 08:44:55;;;;;;;1.13;1.00;;;16.90;35.10;;;;;;5035270;28;21021;-67
2023/02/07 08:47:21;;;;;;;1.13;1.03;;;17.00;35.00;;;;;;5035770;28;20169;-67
2023/02/07 08:49:47;;;;;;;1.43;1.33;;;17.20;34.60;;;;;;5035640;28;20774;-67
2023/02/07 08:52:13;;;;;;;0.90;0.70;;;16.90;33.10;;;;;;5035661;28;20402;-67
2023/02/07 08:54:39;;;;;;;1.10;1.10;;;16.30;34.30;;;;;;5035814;28;20209;-67
2023/02/07 08:57:05;;;;;;;0.50;0.50;;;16.20;34.60;;;;;;5035085;28;20252;-67
2023/02/07 08:59:30;;;;;;;4.10;0.97;;;15.90;33.60;;;;;;5036086;28;20403;-67
2023/02/07 09:01:56;;;;;;;2.10;1.17;;;15.30;35.00;;;;;;5035180;28;20481;-68
2023/02/07 09:04:21;;;;;;;1.10;0.90;;;15.00;35.40;;;;;;5035433;28;20199;-67
2023/02/07 09:06:47;;;;;;;1.20;1.10;;;14.70;35.50;;;;;;5035688;28;20177;-68
2023/02/07 09:09:13;;;;;;;2.10;1.03;;;14.60;36.20;;;;;;5035726;28;20177;-67
2023/02/07 09:11:39;;;;;;;0.90;0.90;;;14.70;35.60;;;;;;5035124;28;20202;-67
2023/02/07 09:14:04;;;;;;;1.70;0.93;;;14.90;35.80;;;;;;5035906;28;20186;-67
2023/02/07 09:16:30;;;;;;;0.77;0.77;;;15.20;35.00;;;;;;5035126;28;20221;-67
2023/02/07 09:18:56;;;;;;;1.73;1.63;;;15.70;34.60;;;;;;5035506;28;20179;-67
2023/02/07 09:21:22;;;;;;;1.00;0.97;;;16.30;34.60;;;;;;5035365;28;20432;-67
2023/02/07 09:23:48;;;;;;;2.50;1.77;;;17.00;33.90;;;;;;5035409;28;20210;-70
2023/02/07 09:26:19;;;;;;;2.00;1.20;;;17.70;33.60;;;;;;5035532;28;20175;-69
2023/02/07 09:28:45;;;;;;;1.40;1.30;;;18.80;33.10;;;;;;5034881;28;20417;-69
2023/02/07 09:31:12;;;;;;;1.40;1.30;;;19.50;31.60;;;;;;5034997;28;20932;-70
2023/02/07 09:33:38;;;;;;;1.43;0.97;;;20.00;31.40;;;;;;5034407;28;20422;-70
2023/02/07 09:36:04;;;;;;;1.23;0.67;;;20.70;30.50;;;;;;5033079;28;20409;-70
2023/02/07 09:38:30;;;;;;;0.60;0.60;;;21.30;30.20;;;;;;5032501;28;20418;-69
2023/02/07 09:40:58;;;;;;;1.17;1.17;;;21.70;29.30;;;;;;5032620;28;20429;-69
2023/02/07 09:43:46;;;;;;;0.97;0.97;;;21.80;28.50;;;;;;5032618;28;20414;-69
2023/02/07 09:46:18;;;;;;;0.90;0.90;;;21.70;28.40;;;;;;5032969;28;20405;-67
2023/02/07 09:49:21;;;;;;;1.37;0.93;;;21.70;28.90;;;;;;5033644;28;20761;-69
2023/02/07 09:51:49;;;;;;;0.90;0.90;;;21.80;28.60;;;;;;5026210;28;20454;-69
2023/02/07 09:54:35;;;;;;;0.60;0.53;;;21.90;27.90;;;;;;5034382;28;20428;-69
2023/02/07 09:57:07;;;;;;;0.40;0.40;;;22.50;28.80;;;;;;5034973;28;20758;-68
2023/02/07 10:00:02;;;;;;;2.30;0.70;;;22.80;28.10;;;;;;5034341;28;20468;-68
2023/02/07 10:02:40;;;;;;;1.00;0.90;;;22.80;28.00;;;;;;5023192;28;20410;-68
2023/02/07 10:05:15;;;;;;;1.40;1.30;;;22.40;27.40;;;;;;5034146;28;20460;-68
2023/02/07 10:07:47;;;;;;;0.73;0.73;;;22.00;28.30;;;;;;5034353;28;20913;-68
2023/02/07 10:10:18;;;;;;;1.10;1.00;;;21.80;28.10;;;;;;5033905;28;20460;-68
2023/02/07 10:12:56;;;;;;;0.53;0.53;;;22.00;28.30;;;;;;5034035;28;20440;-68
2023/02/07 10:15:34;;;;;;;1.13;0.83;;;22.00;28.00;;;;;;5033951;28;20481;-68
2023/02/07 10:18:30;;;;;;;0.90;0.90;;;22.20;28.00;;;;;;5034247;28;20413;-68
2023/02/07 10:21:22;;;;;;;0.60;0.60;;;22.40;27.70;;;;;;5033979;28;20441;-68
2023/02/07 10:24:13;;;;;;;0.90;0.83;;;22.50;27.70;;;;;;5031214;28;20429;-68
2023/02/07 10:26:50;;;;;;;1.40;1.23;;;22.40;27.70;;;;;;5030519;28;20433;-68
2023/02/07 10:29:50;;;;;;;0.97;0.70;;;22.10;27.90;;;;;;5033915;28;20397;-68
2023/02/07 10:32:24;;;;;;;0.93;0.93;;;21.70;27.30;;;;;;5033839;28;20885;-68
2023/02/07 10:34:55;;;;;;;1.07;0.90;;;21.10;25.50;;;;;;5033524;28;20413;-68
2023/02/07 10:37:22;;;;;;;1.53;1.43;;;20.70;27.20;;;;;;5033880;28;20451;-68
2023/02/07 10:40:06;;;;;;;0.70;0.70;;;20.80;27.60;;;;;;5033565;28;20837;-68
2023/02/07 10:42:35;;;;;;;0.90;0.90;;;20.30;27.00;;;;;;5033628;28;20391;-68
2023/02/07 10:45:02;;;;;;;0.63;0.63;;;19.70;26.60;;;;;;5033385;28;20595;-68
2023/02/07 10:47:29;;;;;;;0.77;0.77;;;19.50;27.40;;;;;;5033853;28;20406;-67
2023/02/07 10:49:57;;;;;;;0.50;0.50;;;19.00;27.40;;;;;;5033628;28;20445;-68
2023/02/07 10:52:26;;;;;;;0.40;0.40;;;18.80;28.20;;;;;;5033555;28;20804;-67
2023/02/07 10:55:01;;;;;;;0.40;0.40;;;17.90;27.30;;;;;;5032815;28;20452;-67
2023/02/07 10:57:28;;;;;;;1.07;1.03;;;17.80;27.10;;;;;;5033754;28;20459;-67
2023/02/07 11:00:03;;;;;;;0.70;0.70;;;17.80;27.60;;;;;;5033516;28;20437;-67
2023/02/07 11:02:31;;;;;;;0.50;0.50;;;17.50;27.10;;;;;;5033339;28;20457;-68
2023/02/07 11:04:58;;;;;;;0.50;0.50;;;16.90;28.20;;;;;;5032991;28;20461;-67
2023/02/07 11:07:24;;;;;;;0.63;0.63;;;16.20;27.50;;;;;;5033396;28;20830;-67
2023/02/07 11:09:50;;;;;;;0.67;0.67;;;15.90;28.70;;;;;;5033530;28;20427;-67
2023/02/07 11:12:21;;;;;;;1.70;1.07;;;15.10;31.20;;;;;;5033188;28;20428;-67
2023/02/07 11:15:00;;;;;;;0.70;0.70;;;14.30;33.60;;;;;;5033203;28;20413;-67
2023/02/07 11:17:26;;;;;;;0.90;0.90;;;13.30;35.80;;;;;;5033312;28;20441;-67
2023/02/07 11:19:52;;;;;;;1.60;1.43;;;12.60;34.70;;;;;;5033392;28;20454;-67
2023/02/07 11:22:21;;;;;;;2.33;1.50;;;12.50;32.30;;;;;;5033198;28;20838;-67
2023/02/07 11:24:50;;;;;;;1.37;1.27;;;12.40;35.10;;;;;;5033073;28;20464;-67
2023/02/07 11:27:20;;;;;;;0.80;0.80;;;12.00;36.00;;;;;;5033316;28;20488;-67
2023/02/07 11:29:55;;;;;;;0.50;0.50;;;11.30;33.30;;;;;;5033322;28;20475;-67
2023/02/07 11:32:24;;;;;;;2.93;1.57;;;10.90;35.50;;;;;;5033470;28;20863;-67
2023/02/07 11:34:58;;;;;;;1.30;1.20;;;10.80;37.60;;;;;;5033037;28;20418;-67
2023/02/07 11:37:32;;;;;;;0.50;0.50;;;10.90;35.90;;;;;;5033394;28;20829;-67
2023/02/07 11:40:23;;;;;;;0.67;0.60;;;10.80;36.80;;;;;;5033210;28;20443;-67
2023/02/07 11:42:56;;;;;;;0.80;0.80;;;10.40;37.80;;;;;;5033028;28;20409;-67
2023/02/07 11:45:23;;;;;;;2.47;2.38;;;9.90;39.10;;;;;;5032902;28;20452;-67
2023/02/07 11:47:52;;;;;;;0.40;0.40;;;9.80;36.40;;;;;;5033020;28;20499;-67
2023/02/07 11:50:23;;;;;;;1.60;0.70;;;9.80;36.50;;;;;;5032730;28;20286;-67
2023/02/07 11:52:57;;;;;;;0.40;0.40;;;9.90;38.30;;;;;;5033386;28;20529;-67
2023/02/07 11:55:38;;;;;;;0.65;0.65;;;10.00;38.50;;;;;;5032930;28;20182;-67
2023/02/07 11:58:37;;;;;;;1.10;1.00;;;10.00;41.30;;;;;;5032944;28;20644;-66
2023/02/07 12:01:05;;;;;;;0.60;0.60;;;10.10;39.60;;;;;;5030371;28;20203;-67
2023/02/07 12:03:40;;;;;;;0.63;0.63;;;10.10;39.10;;;;;;5033111;28;20175;-67
2023/02/07 12:06:11;;;;;;;0.40;0.40;;;10.00;38.40;;;;;;5035887;28;20198;-66
2023/02/07 12:08:40;;;;;;;1.20;0.70;;;9.80;40.90;;;;;;5036793;28;20162;-67
2023/02/07 12:11:19;;;;;;;1.20;0.52;;;9.60;39.90;;;;;;5037048;28;20194;-68
2023/02/07 12:13:54;;;;;;;1.40;1.30;;;9.30;37.10;;;;;;5036634;28;20643;-69
2023/02/07 12:16:25;;;;;;;0.40;0.40;;;9.10;36.10;;;;;;5036097;28;20265;-69
2023/02/07 12:19:11;;;;;;;1.30;1.30;;;9.00;34.50;;;;;;5036433;28;20238;-69
2023/02/07 12:21:52;;;;;;;0.60;0.60;;;8.90;38.50;;;;;;5034995;28;20203;-70
2023/02/07 12:25:04;;;;;;;0.98;0.85;;;8.80;40.80;;;;;;5036491;28;20209;-69
2023/02/07 12:27:35;;;;;;;0.50;0.50;;;8.30;39.40;;;;;;5027674;28;20206;-69
2023/02/07 12:30:24;;;;;;;0.70;0.70;;;8.20;40.00;;;;;;5036553;28;20245;-69
2023/02/07 12:33:00;;;;;;;0.70;0.70;;;7.90;38.30;;;;;;5036344;28;20167;-68
2023/02/07 12:35:42;;;;;;;1.40;0.82;;;7.90;39.70;;;;;;5036080;28;20210;-69
2023/02/07 12:38:11;;;;;;;0.40;0.40;;;8.10;41.50;;;;;;5035274;28;20185;-69
2023/02/07 12:40:46;;;;;;;1.75;1.58;;;8.20;39.50;;;;;;5035972;28;20200;-69
2023/02/07 12:43:27;;;;;;;0.63;0.63;;;8.10;40.70;;;;;;5036159;28;20220;-69
2023/02/07 12:46:02;;;;;;;0.75;0.75;;;7.70;41.70;;;;;;5035613;28;20205;-69
2023/02/07 12:48:34;;;;;;;2.60;2.40;;;7.40;42.20;;;;;;5036437;28;20197;-69
2023/02/07 12:51:26;;;;;;;2.28;1.75;;;7.30;42.60;;;;;;5034410;28;20575;-69
2023/02/07 12:54:23;;;;;;;1.85;1.75;;;7.20;42.90;;;;;;5034646;28;20532;-69
2023/02/07 12:56:55;;;;;;;0.95;0.95;;;6.90;44.50;;;;;;5035926;28;20537;-69
2023/02/07 12:59:29;;;;;;;0.85;0.85;;;6.70;46.80;;;;;;5035605;28;20165;-69
2023/02/07 13:02:36;;;;;;;1.17;1.17;;;6.60;46.40;;;;;;5035777;28;20191;-69
2023/02/07 13:05:20;;;;;;;4.50;2.78;;;6.70;46.10;;;;;;5035476;28;20200;-69
2023/02/07 13:07:59;;;;;;;1.55;1.45;;;6.50;47.10;;;;;;5035808;28;20171;-69